首页
METAR-TAF:

METAR-TAF

机场 :

布兰丁, 犹他州, 美国

纬度: 37-35-00N, 经度: 109-29-00W, 海拔: 1789米

当前天气观测

该预报发布于16分钟前的00:15 UTC
风速6节,风向南转西南
温度 34°C
湿度 8%
气压 1019 hPa
能見度: 16.1公里
天空无云

METAR: KBDG 130015Z AUTO 21006KT 10SM CLR 34/M05 A3010 RMK AO2 WSHFT 2352 T03431047

时间: 18:31 (00:31 UTC)


TAF: 丢失

超过4000个机场的气象观测和天气预报(METAR&TAF报告)。

可查询的气象台以黄色和红色小点在地图上表示。

将鼠标移到小点上方,可查看气象台名称。

然后点击查看天气观测和预报。

如需切换地图:点击带黑十字的绿色按钮放大地图;点击带横线的绿色按钮缩小地图;或者点击绿色箭头查看邻近地区的地图。


METAR-TAF: